<?xml version="1.0" encoding="UTF-8" standalone="no" ?>
<gpx xmlns="http://www.topografix.com/GPX/1/1" xmlns:xsi="http://www.w3.org/2001/XMLSchema-instance" xsi:schemaLocation="http://www.topografix.com/GPX/1/1 http://www.topografix.com/GPX/1/1/gpx.xsd" version="1.1" creator="VisuGPX - https://www.visugpx.com">
  <metadata>
    <name>ARQUES LA SEYNE SUR MER 1497 KM</name>
    <desc><![CDATA[Rando de Arques dans le Pas de Calais jusque La Seyne sur Mer dans le Var, 1497 km]]></desc>
  </metadata>
  <trk>
    <name><![CDATA[45 - TOURNON SUR RHONE ST PERAY 29 KM]]></name>
    <extensions>
      <line xmlns="http://www.topografix.com/GPX/gpx_style/0/2">
        <color>008800</color>
        <width>4</width>
      </line>
    </extensions>
    <trkseg>
      <trkpt lat="45.06754" lon="4.83174">
        <ele>130</ele>
        <time>2021-11-28T12:03:55+01:00</time>
      </trkpt>
      <trkpt lat="45.06749" lon="4.83191">
        <ele>130</ele>
        <time>2021-11-28T12:04:00+01:00</time>
      </trkpt>
      <trkpt lat="45.06692" lon="4.83154">
        <ele>135</ele>
        <time>2021-11-28T12:04:05+01:00</time>
      </trkpt>
      <trkpt lat="45.06638" lon="4.83218">
        <ele>132</ele>
        <time>2021-11-28T12:04:10+01:00</time>
      </trkpt>
      <trkpt lat="45.06592" lon="4.83171">
        <ele>139</ele>
        <time>2021-11-28T12:04:15+01:00</time>
      </trkpt>
      <trkpt lat="45.06611" lon="4.83132">
        <ele>149</ele>
        <time>2021-11-28T12:04:20+01:00</time>
      </trkpt>
      <trkpt lat="45.06533" lon="4.83143">
        <ele>155</ele>
        <time>2021-11-28T12:04:25+01:00</time>
      </trkpt>
      <trkpt lat="45.06556" lon="4.83125">
        <ele>158</ele>
        <time>2021-11-28T12:04:30+01:00</time>
      </trkpt>
      <trkpt lat="45.06524" lon="4.83116">
        <ele>164</ele>
        <time>2021-11-28T12:04:35+01:00</time>
      </trkpt>
      <trkpt lat="45.06534" lon="4.83108">
        <ele>166</ele>
        <time>2021-11-28T12:04:40+01:00</time>
      </trkpt>
      <trkpt lat="45.06553" lon="4.83112">
        <ele>163</ele>
        <time>2021-11-28T12:04:45+01:00</time>
      </trkpt>
      <trkpt lat="45.0661" lon="4.83063">
        <ele>174</ele>
        <time>2021-11-28T12:04:50+01:00</time>
      </trkpt>
      <trkpt lat="45.06629" lon="4.83048">
        <ele>175</ele>
        <time>2021-11-28T12:04:55+01:00</time>
      </trkpt>
      <trkpt lat="45.06647" lon="4.83052">
        <ele>169</ele>
        <time>2021-11-28T12:05:00+01:00</time>
      </trkpt>
      <trkpt lat="45.06649" lon="4.82992">
        <ele>192</ele>
        <time>2021-11-28T12:05:05+01:00</time>
      </trkpt>
      <trkpt lat="45.06673" lon="4.82973">
        <ele>190</ele>
        <time>2021-11-28T12:05:10+01:00</time>
      </trkpt>
      <trkpt lat="45.06675" lon="4.82943">
        <ele>199</ele>
        <time>2021-11-28T12:05:15+01:00</time>
      </trkpt>
      <trkpt lat="45.06691" lon="4.82914">
        <ele>200</ele>
        <time>2021-11-28T12:05:20+01:00</time>
      </trkpt>
      <trkpt lat="45.06715" lon="4.82893">
        <ele>192</ele>
        <time>2021-11-28T12:05:25+01:00</time>
      </trkpt>
      <trkpt lat="45.06721" lon="4.82854">
        <ele>196</ele>
        <time>2021-11-28T12:05:30+01:00</time>
      </trkpt>
      <trkpt lat="45.06711" lon="4.8282">
        <ele>208</ele>
        <time>2021-11-28T12:05:35+01:00</time>
      </trkpt>
      <trkpt lat="45.06692" lon="4.82782">
        <ele>223</ele>
        <time>2021-11-28T12:05:40+01:00</time>
      </trkpt>
      <trkpt lat="45.06686" lon="4.82794">
        <ele>224</ele>
        <time>2021-11-28T12:05:45+01:00</time>
      </trkpt>
      <trkpt lat="45.06671" lon="4.82768">
        <ele>232</ele>
        <time>2021-11-28T12:05:50+01:00</time>
      </trkpt>
      <trkpt lat="45.06671" lon="4.8284">
        <ele>225</ele>
        <time>2021-11-28T12:05:55+01:00</time>
      </trkpt>
      <trkpt lat="45.06598" lon="4.82936">
        <ele>230</ele>
        <time>2021-11-28T12:06:00+01:00</time>
      </trkpt>
      <trkpt lat="45.06594" lon="4.82913">
        <ele>240</ele>
        <time>2021-11-28T12:06:05+01:00</time>
      </trkpt>
      <trkpt lat="45.06634" lon="4.82796">
        <ele>249</ele>
        <time>2021-11-28T12:06:10+01:00</time>
      </trkpt>
      <trkpt lat="45.06623" lon="4.82758">
        <ele>258</ele>
        <time>2021-11-28T12:06:15+01:00</time>
      </trkpt>
      <trkpt lat="45.06589" lon="4.82742">
        <ele>279</ele>
        <time>2021-11-28T12:06:20+01:00</time>
      </trkpt>
      <trkpt lat="45.06587" lon="4.82645">
        <ele>297</ele>
        <time>2021-11-28T12:06:25+01:00</time>
      </trkpt>
      <trkpt lat="45.06624" lon="4.82552">
        <ele>304</ele>
        <time>2021-11-28T12:06:30+01:00</time>
      </trkpt>
      <trkpt lat="45.06667" lon="4.82525">
        <ele>298</ele>
        <time>2021-11-28T12:06:35+01:00</time>
      </trkpt>
      <trkpt lat="45.06614" lon="4.82513">
        <ele>318</ele>
        <time>2021-11-28T12:06:40+01:00</time>
      </trkpt>
      <trkpt lat="45.06582" lon="4.8256">
        <ele>317</ele>
        <time>2021-11-28T12:06:45+01:00</time>
      </trkpt>
      <trkpt lat="45.06566" lon="4.82631">
        <ele>307</ele>
        <time>2021-11-28T12:06:50+01:00</time>
      </trkpt>
      <trkpt lat="45.06523" lon="4.82649">
        <ele>317</ele>
        <time>2021-11-28T12:06:55+01:00</time>
      </trkpt>
      <trkpt lat="45.065" lon="4.82691">
        <ele>317</ele>
        <time>2021-11-28T12:07:00+01:00</time>
      </trkpt>
      <trkpt lat="45.06465" lon="4.82652">
        <ele>324</ele>
        <time>2021-11-28T12:07:05+01:00</time>
      </trkpt>
      <trkpt lat="45.06414" lon="4.82639">
        <ele>326</ele>
        <time>2021-11-28T12:07:10+01:00</time>
      </trkpt>
      <trkpt lat="45.06377" lon="4.82648">
        <ele>325</ele>
        <time>2021-11-28T12:07:15+01:00</time>
      </trkpt>
      <trkpt lat="45.06303" lon="4.82605">
        <ele>329</ele>
        <time>2021-11-28T12:07:20+01:00</time>
      </trkpt>
      <trkpt lat="45.06332" lon="4.82558">
        <ele>335</ele>
        <time>2021-11-28T12:07:25+01:00</time>
      </trkpt>
      <trkpt lat="45.06333" lon="4.82487">
        <ele>342</ele>
        <time>2021-11-28T12:07:30+01:00</time>
      </trkpt>
      <trkpt lat="45.06286" lon="4.82499">
        <ele>336</ele>
        <time>2021-11-28T12:07:35+01:00</time>
      </trkpt>
      <trkpt lat="45.06157" lon="4.82486">
        <ele>327</ele>
        <time>2021-11-28T12:07:40+01:00</time>
      </trkpt>
      <trkpt lat="45.0605" lon="4.8235">
        <ele>346</ele>
        <time>2021-11-28T12:07:45+01:00</time>
      </trkpt>
      <trkpt lat="45.06076" lon="4.82305">
        <ele>348</ele>
        <time>2021-11-28T12:07:50+01:00</time>
      </trkpt>
      <trkpt lat="45.0604" lon="4.82272">
        <ele>350</ele>
        <time>2021-11-28T12:07:55+01:00</time>
      </trkpt>
      <trkpt lat="45.06024" lon="4.82227">
        <ele>351</ele>
        <time>2021-11-28T12:08:00+01:00</time>
      </trkpt>
      <trkpt lat="45.06531" lon="4.78774">
        <ele>156</ele>
        <time>2021-11-28T12:08:05+01:00</time>
      </trkpt>
      <trkpt lat="45.06608" lon="4.78612">
        <ele>151</ele>
        <time>2021-11-28T12:08:10+01:00</time>
      </trkpt>
      <trkpt lat="45.0663" lon="4.78477">
        <ele>157</ele>
        <time>2021-11-28T12:08:15+01:00</time>
      </trkpt>
      <trkpt lat="45.06619" lon="4.782">
        <ele>153</ele>
        <time>2021-11-28T12:08:20+01:00</time>
      </trkpt>
      <trkpt lat="45.06571" lon="4.78148">
        <ele>154</ele>
        <time>2021-11-28T12:08:25+01:00</time>
      </trkpt>
      <trkpt lat="45.06535" lon="4.7814">
        <ele>153</ele>
        <time>2021-11-28T12:08:30+01:00</time>
      </trkpt>
      <trkpt lat="45.06484" lon="4.78156">
        <ele>156</ele>
        <time>2021-11-28T12:08:35+01:00</time>
      </trkpt>
      <trkpt lat="45.06457" lon="4.78185">
        <ele>158</ele>
        <time>2021-11-28T12:08:40+01:00</time>
      </trkpt>
      <trkpt lat="45.06457" lon="4.78228">
        <ele>169</ele>
        <time>2021-11-28T12:08:45+01:00</time>
      </trkpt>
      <trkpt lat="45.06512" lon="4.78255">
        <ele>186</ele>
        <time>2021-11-28T12:08:50+01:00</time>
      </trkpt>
      <trkpt lat="45.06536" lon="4.78275">
        <ele>186</ele>
        <time>2021-11-28T12:08:55+01:00</time>
      </trkpt>
      <trkpt lat="45.06525" lon="4.78282">
        <ele>190</ele>
        <time>2021-11-28T12:09:00+01:00</time>
      </trkpt>
      <trkpt lat="45.0651" lon="4.78288">
        <ele>195</ele>
        <time>2021-11-28T12:09:05+01:00</time>
      </trkpt>
      <trkpt lat="45.0651" lon="4.78324">
        <ele>203</ele>
        <time>2021-11-28T12:09:10+01:00</time>
      </trkpt>
      <trkpt lat="45.06475" lon="4.78338">
        <ele>204</ele>
        <time>2021-11-28T12:09:15+01:00</time>
      </trkpt>
      <trkpt lat="45.06492" lon="4.78413">
        <ele>222</ele>
        <time>2021-11-28T12:09:20+01:00</time>
      </trkpt>
      <trkpt lat="45.06454" lon="4.78449">
        <ele>221</ele>
        <time>2021-11-28T12:09:25+01:00</time>
      </trkpt>
      <trkpt lat="45.06447" lon="4.78527">
        <ele>228</ele>
        <time>2021-11-28T12:09:30+01:00</time>
      </trkpt>
      <trkpt lat="45.06401" lon="4.78628">
        <ele>231</ele>
        <time>2021-11-28T12:09:35+01:00</time>
      </trkpt>
      <trkpt lat="45.06343" lon="4.78744">
        <ele>246</ele>
        <time>2021-11-28T12:09:40+01:00</time>
      </trkpt>
      <trkpt lat="45.06294" lon="4.78806">
        <ele>251</ele>
        <time>2021-11-28T12:09:45+01:00</time>
      </trkpt>
      <trkpt lat="45.0624" lon="4.78861">
        <ele>264</ele>
        <time>2021-11-28T12:09:50+01:00</time>
      </trkpt>
      <trkpt lat="45.06233" lon="4.78895">
        <ele>264</ele>
        <time>2021-11-28T12:09:55+01:00</time>
      </trkpt>
      <trkpt lat="45.06216" lon="4.78892">
        <ele>265</ele>
        <time>2021-11-28T12:10:00+01:00</time>
      </trkpt>
      <trkpt lat="45.062" lon="4.78912">
        <ele>268</ele>
        <time>2021-11-28T12:10:05+01:00</time>
      </trkpt>
      <trkpt lat="45.06172" lon="4.78904">
        <ele>271</ele>
        <time>2021-11-28T12:10:10+01:00</time>
      </trkpt>
      <trkpt lat="45.06145" lon="4.78913">
        <ele>273</ele>
        <time>2021-11-28T12:10:15+01:00</time>
      </trkpt>
      <trkpt lat="45.06106" lon="4.78894">
        <ele>269</ele>
        <time>2021-11-28T12:10:20+01:00</time>
      </trkpt>
      <trkpt lat="45.06084" lon="4.78908">
        <ele>271</ele>
        <time>2021-11-28T12:10:25+01:00</time>
      </trkpt>
      <trkpt lat="45.06044" lon="4.78901">
        <ele>272</ele>
        <time>2021-11-28T12:10:30+01:00</time>
      </trkpt>
      <trkpt lat="45.06005" lon="4.7889">
        <ele>273</ele>
        <time>2021-11-28T12:10:35+01:00</time>
      </trkpt>
      <trkpt lat="45.05957" lon="4.78904">
        <ele>286</ele>
        <time>2021-11-28T12:10:40+01:00</time>
      </trkpt>
      <trkpt lat="45.05853" lon="4.78907">
        <ele>302</ele>
        <time>2021-11-28T12:10:45+01:00</time>
      </trkpt>
      <trkpt lat="45.05818" lon="4.78889">
        <ele>300</ele>
        <time>2021-11-28T12:10:50+01:00</time>
      </trkpt>
      <trkpt lat="45.05796" lon="4.78911">
        <ele>308</ele>
        <time>2021-11-28T12:10:55+01:00</time>
      </trkpt>
      <trkpt lat="45.05755" lon="4.7891">
        <ele>311</ele>
        <time>2021-11-28T12:11:00+01:00</time>
      </trkpt>
      <trkpt lat="45.05724" lon="4.78861">
        <ele>300</ele>
        <time>2021-11-28T12:11:05+01:00</time>
      </trkpt>
      <trkpt lat="45.0569" lon="4.78856">
        <ele>305</ele>
        <time>2021-11-28T12:11:10+01:00</time>
      </trkpt>
      <trkpt lat="45.0565" lon="4.78871">
        <ele>314</ele>
        <time>2021-11-28T12:11:15+01:00</time>
      </trkpt>
      <trkpt lat="45.05658" lon="4.7888">
        <ele>317</ele>
        <time>2021-11-28T12:11:20+01:00</time>
      </trkpt>
      <trkpt lat="45.05634" lon="4.78895">
        <ele>322</ele>
        <time>2021-11-28T12:11:25+01:00</time>
      </trkpt>
      <trkpt lat="45.05566" lon="4.78876">
        <ele>319</ele>
        <time>2021-11-28T12:11:30+01:00</time>
      </trkpt>
      <trkpt lat="45.05532" lon="4.78868">
        <ele>321</ele>
        <time>2021-11-28T12:11:35+01:00</time>
      </trkpt>
      <trkpt lat="45.05511" lon="4.78854">
        <ele>320</ele>
        <time>2021-11-28T12:11:40+01:00</time>
      </trkpt>
      <trkpt lat="45.05478" lon="4.78771">
        <ele>308</ele>
        <time>2021-11-28T12:11:45+01:00</time>
      </trkpt>
      <trkpt lat="45.05473" lon="4.78732">
        <ele>298</ele>
        <time>2021-11-28T12:11:50+01:00</time>
      </trkpt>
      <trkpt lat="45.05435" lon="4.78699">
        <ele>305</ele>
        <time>2021-11-28T12:11:55+01:00</time>
      </trkpt>
      <trkpt lat="45.0543" lon="4.78669">
        <ele>297</ele>
        <time>2021-11-28T12:12:00+01:00</time>
      </trkpt>
      <trkpt lat="45.05394" lon="4.78632">
        <ele>301</ele>
        <time>2021-11-28T12:12:05+01:00</time>
      </trkpt>
      <trkpt lat="45.05413" lon="4.78579">
        <ele>279</ele>
        <time>2021-11-28T12:12:10+01:00</time>
      </trkpt>
      <trkpt lat="45.05355" lon="4.7853">
        <ele>280</ele>
        <time>2021-11-28T12:12:15+01:00</time>
      </trkpt>
      <trkpt lat="45.05323" lon="4.78522">
        <ele>288</ele>
        <time>2021-11-28T12:12:20+01:00</time>
      </trkpt>
      <trkpt lat="45.05297" lon="4.78466">
        <ele>271</ele>
        <time>2021-11-28T12:12:25+01:00</time>
      </trkpt>
      <trkpt lat="45.05264" lon="4.78453">
        <ele>275</ele>
        <time>2021-11-28T12:12:30+01:00</time>
      </trkpt>
      <trkpt lat="45.05246" lon="4.78458">
        <ele>284</ele>
        <time>2021-11-28T12:12:35+01:00</time>
      </trkpt>
      <trkpt lat="45.05205" lon="4.7841">
        <ele>283</ele>
        <time>2021-11-28T12:12:40+01:00</time>
      </trkpt>
      <trkpt lat="45.05219" lon="4.78342">
        <ele>255</ele>
        <time>2021-11-28T12:12:45+01:00</time>
      </trkpt>
      <trkpt lat="45.05145" lon="4.78255">
        <ele>258</ele>
        <time>2021-11-28T12:12:50+01:00</time>
      </trkpt>
      <trkpt lat="45.05111" lon="4.78237">
        <ele>263</ele>
        <time>2021-11-28T12:12:55+01:00</time>
      </trkpt>
      <trkpt lat="45.05083" lon="4.78174">
        <ele>248</ele>
        <time>2021-11-28T12:13:00+01:00</time>
      </trkpt>
      <trkpt lat="45.05052" lon="4.78158">
        <ele>246</ele>
        <time>2021-11-28T12:13:05+01:00</time>
      </trkpt>
      <trkpt lat="45.05" lon="4.78176">
        <ele>257</ele>
        <time>2021-11-28T12:13:10+01:00</time>
      </trkpt>
      <trkpt lat="45.04971" lon="4.7816">
        <ele>263</ele>
        <time>2021-11-28T12:13:15+01:00</time>
      </trkpt>
      <trkpt lat="45.04992" lon="4.78142">
        <ele>256</ele>
        <time>2021-11-28T12:13:20+01:00</time>
      </trkpt>
      <trkpt lat="45.05037" lon="4.78045">
        <ele>242</ele>
        <time>2021-11-28T12:13:25+01:00</time>
      </trkpt>
      <trkpt lat="45.05055" lon="4.78015">
        <ele>234</ele>
        <time>2021-11-28T12:13:30+01:00</time>
      </trkpt>
      <trkpt lat="45.05028" lon="4.7794">
        <ele>238</ele>
        <time>2021-11-28T12:13:35+01:00</time>
      </trkpt>
      <trkpt lat="45.0498" lon="4.77848">
        <ele>238</ele>
        <time>2021-11-28T12:13:40+01:00</time>
      </trkpt>
      <trkpt lat="45.04903" lon="4.77806">
        <ele>256</ele>
        <time>2021-11-28T12:13:45+01:00</time>
      </trkpt>
      <trkpt lat="45.04798" lon="4.77731">
        <ele>272</ele>
        <time>2021-11-28T12:13:50+01:00</time>
      </trkpt>
      <trkpt lat="45.04799" lon="4.77647">
        <ele>266</ele>
        <time>2021-11-28T12:13:55+01:00</time>
      </trkpt>
      <trkpt lat="45.04931" lon="4.77593">
        <ele>265</ele>
        <time>2021-11-28T12:14:00+01:00</time>
      </trkpt>
      <trkpt lat="45.0486" lon="4.77587">
        <ele>266</ele>
        <time>2021-11-28T12:14:05+01:00</time>
      </trkpt>
      <trkpt lat="45.04778" lon="4.77584">
        <ele>271</ele>
        <time>2021-11-28T12:14:10+01:00</time>
      </trkpt>
      <trkpt lat="45.04738" lon="4.77617">
        <ele>281</ele>
        <time>2021-11-28T12:14:15+01:00</time>
      </trkpt>
      <trkpt lat="45.04591" lon="4.77627">
        <ele>317</ele>
        <time>2021-11-28T12:14:20+01:00</time>
      </trkpt>
      <trkpt lat="45.04651" lon="4.77656">
        <ele>315</ele>
        <time>2021-11-28T12:14:25+01:00</time>
      </trkpt>
      <trkpt lat="45.0469" lon="4.77729">
        <ele>320</ele>
        <time>2021-11-28T12:14:30+01:00</time>
      </trkpt>
      <trkpt lat="45.04685" lon="4.77766">
        <ele>329</ele>
        <time>2021-11-28T12:14:35+01:00</time>
      </trkpt>
      <trkpt lat="45.04612" lon="4.77815">
        <ele>353</ele>
        <time>2021-11-28T12:14:40+01:00</time>
      </trkpt>
      <trkpt lat="45.04588" lon="4.77762">
        <ele>357</ele>
        <time>2021-11-28T12:14:45+01:00</time>
      </trkpt>
      <trkpt lat="45.04527" lon="4.77772">
        <ele>372</ele>
        <time>2021-11-28T12:14:50+01:00</time>
      </trkpt>
      <trkpt lat="45.04522" lon="4.77811">
        <ele>377</ele>
        <time>2021-11-28T12:14:55+01:00</time>
      </trkpt>
      <trkpt lat="45.04477" lon="4.77834">
        <ele>392</ele>
        <time>2021-11-28T12:15:00+01:00</time>
      </trkpt>
      <trkpt lat="45.04419" lon="4.77841">
        <ele>404</ele>
        <time>2021-11-28T12:15:05+01:00</time>
      </trkpt>
      <trkpt lat="45.04278" lon="4.77835">
        <ele>424</ele>
        <time>2021-11-28T12:15:10+01:00</time>
      </trkpt>
      <trkpt lat="45.04157" lon="4.77817">
        <ele>429</ele>
        <time>2021-11-28T12:15:15+01:00</time>
      </trkpt>
      <trkpt lat="45.04061" lon="4.77825">
        <ele>437</ele>
        <time>2021-11-28T12:15:20+01:00</time>
      </trkpt>
      <trkpt lat="45.04007" lon="4.77835">
        <ele>445</ele>
        <time>2021-11-28T12:15:25+01:00</time>
      </trkpt>
      <trkpt lat="45.03975" lon="4.77789">
        <ele>442</ele>
        <time>2021-11-28T12:15:30+01:00</time>
      </trkpt>
      <trkpt lat="45.03946" lon="4.77775">
        <ele>444</ele>
        <time>2021-11-28T12:15:35+01:00</time>
      </trkpt>
      <trkpt lat="45.0393" lon="4.77725">
        <ele>439</ele>
        <time>2021-11-28T12:15:40+01:00</time>
      </trkpt>
      <trkpt lat="45.03908" lon="4.77688">
        <ele>437</ele>
        <time>2021-11-28T12:15:45+01:00</time>
      </trkpt>
      <trkpt lat="45.0393" lon="4.77597">
        <ele>423</ele>
        <time>2021-11-28T12:15:50+01:00</time>
      </trkpt>
      <trkpt lat="45.03876" lon="4.77567">
        <ele>423</ele>
        <time>2021-11-28T12:15:55+01:00</time>
      </trkpt>
      <trkpt lat="45.03852" lon="4.77548">
        <ele>421</ele>
        <time>2021-11-28T12:16:00+01:00</time>
      </trkpt>
      <trkpt lat="45.03859" lon="4.77507">
        <ele>415</ele>
        <time>2021-11-28T12:16:05+01:00</time>
      </trkpt>
      <trkpt lat="45.03807" lon="4.7749">
        <ele>417</ele>
        <time>2021-11-28T12:16:10+01:00</time>
      </trkpt>
      <trkpt lat="45.03775" lon="4.77441">
        <ele>417</ele>
        <time>2021-11-28T12:16:15+01:00</time>
      </trkpt>
      <trkpt lat="45.03741" lon="4.77361">
        <ele>415</ele>
        <time>2021-11-28T12:16:20+01:00</time>
      </trkpt>
      <trkpt lat="45.03673" lon="4.77323">
        <ele>418</ele>
        <time>2021-11-28T12:16:25+01:00</time>
      </trkpt>
      <trkpt lat="45.03602" lon="4.77338">
        <ele>424</ele>
        <time>2021-11-28T12:16:30+01:00</time>
      </trkpt>
      <trkpt lat="45.03551" lon="4.77346">
        <ele>426</ele>
        <time>2021-11-28T12:16:35+01:00</time>
      </trkpt>
      <trkpt lat="45.03482" lon="4.77324">
        <ele>424</ele>
        <time>2021-11-28T12:16:40+01:00</time>
      </trkpt>
      <trkpt lat="45.03448" lon="4.77341">
        <ele>426</ele>
        <time>2021-11-28T12:16:45+01:00</time>
      </trkpt>
      <trkpt lat="45.03425" lon="4.77306">
        <ele>422</ele>
        <time>2021-11-28T12:16:50+01:00</time>
      </trkpt>
      <trkpt lat="45.03377" lon="4.77335">
        <ele>428</ele>
        <time>2021-11-28T12:16:55+01:00</time>
      </trkpt>
      <trkpt lat="45.03304" lon="4.77386">
        <ele>439</ele>
        <time>2021-11-28T12:17:00+01:00</time>
      </trkpt>
      <trkpt lat="45.03243" lon="4.77352">
        <ele>442</ele>
        <time>2021-11-28T12:17:05+01:00</time>
      </trkpt>
      <trkpt lat="45.03163" lon="4.7739">
        <ele>450</ele>
        <time>2021-11-28T12:17:10+01:00</time>
      </trkpt>
      <trkpt lat="45.03142" lon="4.77462">
        <ele>456</ele>
        <time>2021-11-28T12:17:15+01:00</time>
      </trkpt>
      <trkpt lat="45.0305" lon="4.77452">
        <ele>456</ele>
        <time>2021-11-28T12:17:20+01:00</time>
      </trkpt>
      <trkpt lat="45.02988" lon="4.7745">
        <ele>458</ele>
        <time>2021-11-28T12:17:25+01:00</time>
      </trkpt>
      <trkpt lat="45.02906" lon="4.77444">
        <ele>460</ele>
        <time>2021-11-28T12:17:30+01:00</time>
      </trkpt>
      <trkpt lat="45.02816" lon="4.77504">
        <ele>461</ele>
        <time>2021-11-28T12:17:35+01:00</time>
      </trkpt>
      <trkpt lat="45.02744" lon="4.77567">
        <ele>460</ele>
        <time>2021-11-28T12:17:40+01:00</time>
      </trkpt>
      <trkpt lat="45.02693" lon="4.77671">
        <ele>459</ele>
        <time>2021-11-28T12:17:45+01:00</time>
      </trkpt>
      <trkpt lat="45.02618" lon="4.77841">
        <ele>452</ele>
        <time>2021-11-28T12:17:50+01:00</time>
      </trkpt>
      <trkpt lat="45.02579" lon="4.77935">
        <ele>448</ele>
        <time>2021-11-28T12:17:55+01:00</time>
      </trkpt>
      <trkpt lat="45.02512" lon="4.77929">
        <ele>444</ele>
        <time>2021-11-28T12:18:00+01:00</time>
      </trkpt>
      <trkpt lat="45.02403" lon="4.77877">
        <ele>434</ele>
        <time>2021-11-28T12:18:05+01:00</time>
      </trkpt>
      <trkpt lat="45.02306" lon="4.77808">
        <ele>431</ele>
        <time>2021-11-28T12:18:10+01:00</time>
      </trkpt>
      <trkpt lat="45.02219" lon="4.77716">
        <ele>426</ele>
        <time>2021-11-28T12:18:15+01:00</time>
      </trkpt>
      <trkpt lat="45.02147" lon="4.77716">
        <ele>424</ele>
        <time>2021-11-28T12:18:20+01:00</time>
      </trkpt>
      <trkpt lat="45.02092" lon="4.77763">
        <ele>430</ele>
        <time>2021-11-28T12:18:25+01:00</time>
      </trkpt>
      <trkpt lat="45.02069" lon="4.77898">
        <ele>430</ele>
        <time>2021-11-28T12:18:30+01:00</time>
      </trkpt>
      <trkpt lat="45.01945" lon="4.77886">
        <ele>440</ele>
        <time>2021-11-28T12:18:35+01:00</time>
      </trkpt>
      <trkpt lat="45.0186" lon="4.77848">
        <ele>448</ele>
        <time>2021-11-28T12:18:40+01:00</time>
      </trkpt>
      <trkpt lat="45.01729" lon="4.77866">
        <ele>449</ele>
        <time>2021-11-28T12:18:45+01:00</time>
      </trkpt>
      <trkpt lat="45.01702" lon="4.77943">
        <ele>451</ele>
        <time>2021-11-28T12:18:50+01:00</time>
      </trkpt>
      <trkpt lat="45.01671" lon="4.77996">
        <ele>453</ele>
        <time>2021-11-28T12:18:55+01:00</time>
      </trkpt>
      <trkpt lat="45.0166" lon="4.78165">
        <ele>457</ele>
        <time>2021-11-28T12:19:00+01:00</time>
      </trkpt>
      <trkpt lat="45.01634" lon="4.78211">
        <ele>460</ele>
        <time>2021-11-28T12:19:05+01:00</time>
      </trkpt>
      <trkpt lat="45.01659" lon="4.78283">
        <ele>465</ele>
        <time>2021-11-28T12:19:10+01:00</time>
      </trkpt>
      <trkpt lat="45.01622" lon="4.78326">
        <ele>467</ele>
        <time>2021-11-28T12:19:15+01:00</time>
      </trkpt>
      <trkpt lat="45.01585" lon="4.78331">
        <ele>467</ele>
        <time>2021-11-28T12:19:20+01:00</time>
      </trkpt>
      <trkpt lat="45.01558" lon="4.78371">
        <ele>468</ele>
        <time>2021-11-28T12:19:25+01:00</time>
      </trkpt>
      <trkpt lat="45.01555" lon="4.784">
        <ele>469</ele>
        <time>2021-11-28T12:19:30+01:00</time>
      </trkpt>
      <trkpt lat="45.0153" lon="4.78422">
        <ele>469</ele>
        <time>2021-11-28T12:19:35+01:00</time>
      </trkpt>
      <trkpt lat="45.01525" lon="4.78451">
        <ele>469</ele>
        <time>2021-11-28T12:19:40+01:00</time>
      </trkpt>
      <trkpt lat="45.01418" lon="4.78623">
        <ele>477</ele>
        <time>2021-11-28T12:19:45+01:00</time>
      </trkpt>
      <trkpt lat="45.0134" lon="4.7869">
        <ele>482</ele>
        <time>2021-11-28T12:19:50+01:00</time>
      </trkpt>
      <trkpt lat="45.01275" lon="4.78584">
        <ele>478</ele>
        <time>2021-11-28T12:19:55+01:00</time>
      </trkpt>
      <trkpt lat="45.01229" lon="4.78552">
        <ele>478</ele>
        <time>2021-11-28T12:20:00+01:00</time>
      </trkpt>
      <trkpt lat="45.01149" lon="4.78412">
        <ele>475</ele>
        <time>2021-11-28T12:20:05+01:00</time>
      </trkpt>
      <trkpt lat="45.01096" lon="4.78343">
        <ele>476</ele>
        <time>2021-11-28T12:20:10+01:00</time>
      </trkpt>
      <trkpt lat="45.01049" lon="4.78331">
        <ele>479</ele>
        <time>2021-11-28T12:20:15+01:00</time>
      </trkpt>
      <trkpt lat="45.00999" lon="4.78302">
        <ele>481</ele>
        <time>2021-11-28T12:20:20+01:00</time>
      </trkpt>
      <trkpt lat="45.01003" lon="4.78273">
        <ele>480</ele>
        <time>2021-11-28T12:20:25+01:00</time>
      </trkpt>
      <trkpt lat="45.00953" lon="4.7825">
        <ele>481</ele>
        <time>2021-11-28T12:20:30+01:00</time>
      </trkpt>
      <trkpt lat="45.00869" lon="4.78306">
        <ele>490</ele>
        <time>2021-11-28T12:20:35+01:00</time>
      </trkpt>
      <trkpt lat="45.00809" lon="4.78313">
        <ele>494</ele>
        <time>2021-11-28T12:20:40+01:00</time>
      </trkpt>
      <trkpt lat="45.00748" lon="4.78314">
        <ele>497</ele>
        <time>2021-11-28T12:20:45+01:00</time>
      </trkpt>
      <trkpt lat="45.0066" lon="4.78366">
        <ele>501</ele>
        <time>2021-11-28T12:20:50+01:00</time>
      </trkpt>
      <trkpt lat="45.00608" lon="4.78434">
        <ele>503</ele>
        <time>2021-11-28T12:20:55+01:00</time>
      </trkpt>
      <trkpt lat="45.00569" lon="4.78563">
        <ele>504</ele>
        <time>2021-11-28T12:21:00+01:00</time>
      </trkpt>
      <trkpt lat="45.00533" lon="4.78689">
        <ele>507</ele>
        <time>2021-11-28T12:21:05+01:00</time>
      </trkpt>
      <trkpt lat="45.00485" lon="4.78701">
        <ele>506</ele>
        <time>2021-11-28T12:21:10+01:00</time>
      </trkpt>
      <trkpt lat="45.00429" lon="4.78781">
        <ele>507</ele>
        <time>2021-11-28T12:21:15+01:00</time>
      </trkpt>
      <trkpt lat="45.0035" lon="4.7884">
        <ele>509</ele>
        <time>2021-11-28T12:21:20+01:00</time>
      </trkpt>
      <trkpt lat="45.00251" lon="4.78913">
        <ele>516</ele>
        <time>2021-11-28T12:21:25+01:00</time>
      </trkpt>
      <trkpt lat="45.00173" lon="4.78939">
        <ele>513</ele>
        <time>2021-11-28T12:21:30+01:00</time>
      </trkpt>
      <trkpt lat="45.00097" lon="4.79005">
        <ele>514</ele>
        <time>2021-11-28T12:21:35+01:00</time>
      </trkpt>
      <trkpt lat="45.00011" lon="4.7906">
        <ele>511</ele>
        <time>2021-11-28T12:21:40+01:00</time>
      </trkpt>
      <trkpt lat="44.99798" lon="4.79049">
        <ele>501</ele>
        <time>2021-11-28T12:21:45+01:00</time>
      </trkpt>
      <trkpt lat="44.9974" lon="4.79023">
        <ele>500</ele>
        <time>2021-11-28T12:21:50+01:00</time>
      </trkpt>
      <trkpt lat="44.99681" lon="4.79043">
        <ele>500</ele>
        <time>2021-11-28T12:21:55+01:00</time>
      </trkpt>
      <trkpt lat="44.99637" lon="4.7913">
        <ele>505</ele>
        <time>2021-11-28T12:22:00+01:00</time>
      </trkpt>
      <trkpt lat="44.99599" lon="4.79221">
        <ele>508</ele>
        <time>2021-11-28T12:22:05+01:00</time>
      </trkpt>
      <trkpt lat="44.99553" lon="4.79281">
        <ele>510</ele>
        <time>2021-11-28T12:22:10+01:00</time>
      </trkpt>
      <trkpt lat="44.99401" lon="4.79351">
        <ele>503</ele>
        <time>2021-11-28T12:22:15+01:00</time>
      </trkpt>
      <trkpt lat="44.99355" lon="4.79437">
        <ele>502</ele>
        <time>2021-11-28T12:22:20+01:00</time>
      </trkpt>
      <trkpt lat="44.99285" lon="4.79497">
        <ele>498</ele>
        <time>2021-11-28T12:22:25+01:00</time>
      </trkpt>
      <trkpt lat="44.99226" lon="4.79491">
        <ele>493</ele>
        <time>2021-11-28T12:22:30+01:00</time>
      </trkpt>
      <trkpt lat="44.99168" lon="4.79456">
        <ele>496</ele>
        <time>2021-11-28T12:22:35+01:00</time>
      </trkpt>
      <trkpt lat="44.99118" lon="4.79456">
        <ele>493</ele>
        <time>2021-11-28T12:22:40+01:00</time>
      </trkpt>
      <trkpt lat="44.99046" lon="4.79427">
        <ele>495</ele>
        <time>2021-11-28T12:22:45+01:00</time>
      </trkpt>
      <trkpt lat="44.98927" lon="4.79402">
        <ele>494</ele>
        <time>2021-11-28T12:22:50+01:00</time>
      </trkpt>
      <trkpt lat="44.98901" lon="4.79376">
        <ele>497</ele>
        <time>2021-11-28T12:22:55+01:00</time>
      </trkpt>
      <trkpt lat="44.98872" lon="4.79384">
        <ele>502</ele>
        <time>2021-11-28T12:23:00+01:00</time>
      </trkpt>
      <trkpt lat="44.98837" lon="4.79378">
        <ele>508</ele>
        <time>2021-11-28T12:23:05+01:00</time>
      </trkpt>
      <trkpt lat="44.98785" lon="4.79408">
        <ele>518</ele>
        <time>2021-11-28T12:23:10+01:00</time>
      </trkpt>
      <trkpt lat="44.98753" lon="4.79445">
        <ele>526</ele>
        <time>2021-11-28T12:23:15+01:00</time>
      </trkpt>
      <trkpt lat="44.98754" lon="4.79503">
        <ele>531</ele>
        <time>2021-11-28T12:23:20+01:00</time>
      </trkpt>
      <trkpt lat="44.98658" lon="4.79577">
        <ele>550</ele>
        <time>2021-11-28T12:23:25+01:00</time>
      </trkpt>
      <trkpt lat="44.98602" lon="4.79631">
        <ele>565</ele>
        <time>2021-11-28T12:23:30+01:00</time>
      </trkpt>
      <trkpt lat="44.98504" lon="4.79734">
        <ele>592</ele>
        <time>2021-11-28T12:23:35+01:00</time>
      </trkpt>
      <trkpt lat="44.9856" lon="4.79755">
        <ele>593</ele>
        <time>2021-11-28T12:23:40+01:00</time>
      </trkpt>
      <trkpt lat="44.98599" lon="4.79823">
        <ele>597</ele>
        <time>2021-11-28T12:23:45+01:00</time>
      </trkpt>
      <trkpt lat="44.98495" lon="4.7981">
        <ele>609</ele>
        <time>2021-11-28T12:23:50+01:00</time>
      </trkpt>
      <trkpt lat="44.98407" lon="4.7982">
        <ele>622</ele>
        <time>2021-11-28T12:23:55+01:00</time>
      </trkpt>
      <trkpt lat="44.98338" lon="4.79809">
        <ele>631</ele>
        <time>2021-11-28T12:24:00+01:00</time>
      </trkpt>
      <trkpt lat="44.98309" lon="4.79764">
        <ele>629</ele>
        <time>2021-11-28T12:24:05+01:00</time>
      </trkpt>
      <trkpt lat="44.98115" lon="4.79746">
        <ele>627</ele>
        <time>2021-11-28T12:24:10+01:00</time>
      </trkpt>
      <trkpt lat="44.98074" lon="4.79717">
        <ele>625</ele>
        <time>2021-11-28T12:24:15+01:00</time>
      </trkpt>
      <trkpt lat="44.97936" lon="4.79675">
        <ele>620</ele>
        <time>2021-11-28T12:24:20+01:00</time>
      </trkpt>
      <trkpt lat="44.97845" lon="4.79746">
        <ele>618</ele>
        <time>2021-11-28T12:24:25+01:00</time>
      </trkpt>
      <trkpt lat="44.97702" lon="4.79858">
        <ele>616</ele>
        <time>2021-11-28T12:24:30+01:00</time>
      </trkpt>
      <trkpt lat="44.9759" lon="4.79884">
        <ele>608</ele>
        <time>2021-11-28T12:24:35+01:00</time>
      </trkpt>
      <trkpt lat="44.97527" lon="4.7993">
        <ele>600</ele>
        <time>2021-11-28T12:24:40+01:00</time>
      </trkpt>
      <trkpt lat="44.97529" lon="4.79991">
        <ele>592</ele>
        <time>2021-11-28T12:24:45+01:00</time>
      </trkpt>
      <trkpt lat="44.97482" lon="4.80031">
        <ele>582</ele>
        <time>2021-11-28T12:24:50+01:00</time>
      </trkpt>
      <trkpt lat="44.97399" lon="4.80005">
        <ele>575</ele>
        <time>2021-11-28T12:24:55+01:00</time>
      </trkpt>
      <trkpt lat="44.97334" lon="4.79994">
        <ele>569</ele>
        <time>2021-11-28T12:25:00+01:00</time>
      </trkpt>
      <trkpt lat="44.97332" lon="4.80049">
        <ele>558</ele>
        <time>2021-11-28T12:25:05+01:00</time>
      </trkpt>
      <trkpt lat="44.97346" lon="4.80077">
        <ele>554</ele>
        <time>2021-11-28T12:25:10+01:00</time>
      </trkpt>
      <trkpt lat="44.97391" lon="4.80089">
        <ele>557</ele>
        <time>2021-11-28T12:25:15+01:00</time>
      </trkpt>
      <trkpt lat="44.97423" lon="4.80184">
        <ele>542</ele>
        <time>2021-11-28T12:25:20+01:00</time>
      </trkpt>
      <trkpt lat="44.97378" lon="4.8019">
        <ele>535</ele>
        <time>2021-11-28T12:25:25+01:00</time>
      </trkpt>
      <trkpt lat="44.97405" lon="4.80267">
        <ele>524</ele>
        <time>2021-11-28T12:25:30+01:00</time>
      </trkpt>
      <trkpt lat="44.97391" lon="4.8038">
        <ele>511</ele>
        <time>2021-11-28T12:25:35+01:00</time>
      </trkpt>
      <trkpt lat="44.97323" lon="4.80357">
        <ele>503</ele>
        <time>2021-11-28T12:25:40+01:00</time>
      </trkpt>
      <trkpt lat="44.97321" lon="4.80305">
        <ele>508</ele>
        <time>2021-11-28T12:25:45+01:00</time>
      </trkpt>
      <trkpt lat="44.97248" lon="4.80299">
        <ele>502</ele>
        <time>2021-11-28T12:25:50+01:00</time>
      </trkpt>
      <trkpt lat="44.97181" lon="4.8025">
        <ele>505</ele>
        <time>2021-11-28T12:25:55+01:00</time>
      </trkpt>
      <trkpt lat="44.97044" lon="4.80242">
        <ele>515</ele>
        <time>2021-11-28T12:26:00+01:00</time>
      </trkpt>
      <trkpt lat="44.9705" lon="4.80293">
        <ele>515</ele>
        <time>2021-11-28T12:26:05+01:00</time>
      </trkpt>
      <trkpt lat="44.97093" lon="4.80386">
        <ele>512</ele>
        <time>2021-11-28T12:26:10+01:00</time>
      </trkpt>
      <trkpt lat="44.97065" lon="4.80409">
        <ele>518</ele>
        <time>2021-11-28T12:26:15+01:00</time>
      </trkpt>
      <trkpt lat="44.97005" lon="4.80417">
        <ele>524</ele>
        <time>2021-11-28T12:26:20+01:00</time>
      </trkpt>
      <trkpt lat="44.96955" lon="4.8053">
        <ele>532</ele>
        <time>2021-11-28T12:26:25+01:00</time>
      </trkpt>
      <trkpt lat="44.96965" lon="4.80607">
        <ele>521</ele>
        <time>2021-11-28T12:26:30+01:00</time>
      </trkpt>
      <trkpt lat="44.96942" lon="4.80656">
        <ele>515</ele>
        <time>2021-11-28T12:26:35+01:00</time>
      </trkpt>
      <trkpt lat="44.96812" lon="4.807">
        <ele>518</ele>
        <time>2021-11-28T12:26:40+01:00</time>
      </trkpt>
      <trkpt lat="44.9684" lon="4.80806">
        <ele>506</ele>
        <time>2021-11-28T12:26:45+01:00</time>
      </trkpt>
      <trkpt lat="44.96887" lon="4.80913">
        <ele>499</ele>
        <time>2021-11-28T12:26:50+01:00</time>
      </trkpt>
      <trkpt lat="44.96842" lon="4.80982">
        <ele>503</ele>
        <time>2021-11-28T12:26:55+01:00</time>
      </trkpt>
      <trkpt lat="44.96885" lon="4.8108">
        <ele>491</ele>
        <time>2021-11-28T12:27:00+01:00</time>
      </trkpt>
      <trkpt lat="44.96798" lon="4.81152">
        <ele>509</ele>
        <time>2021-11-28T12:27:05+01:00</time>
      </trkpt>
      <trkpt lat="44.96802" lon="4.8125">
        <ele>493</ele>
        <time>2021-11-28T12:27:10+01:00</time>
      </trkpt>
      <trkpt lat="44.96728" lon="4.81316">
        <ele>491</ele>
        <time>2021-11-28T12:27:15+01:00</time>
      </trkpt>
      <trkpt lat="44.96681" lon="4.81379">
        <ele>485</ele>
        <time>2021-11-28T12:27:20+01:00</time>
      </trkpt>
      <trkpt lat="44.96608" lon="4.81388">
        <ele>485</ele>
        <time>2021-11-28T12:27:25+01:00</time>
      </trkpt>
      <trkpt lat="44.96472" lon="4.8144">
        <ele>478</ele>
        <time>2021-11-28T12:27:30+01:00</time>
      </trkpt>
      <trkpt lat="44.96386" lon="4.81483">
        <ele>471</ele>
        <time>2021-11-28T12:27:35+01:00</time>
      </trkpt>
      <trkpt lat="44.96351" lon="4.8152">
        <ele>466</ele>
        <time>2021-11-28T12:27:40+01:00</time>
      </trkpt>
      <trkpt lat="44.96262" lon="4.81526">
        <ele>461</ele>
        <time>2021-11-28T12:27:45+01:00</time>
      </trkpt>
      <trkpt lat="44.96117" lon="4.81492">
        <ele>455</ele>
        <time>2021-11-28T12:27:50+01:00</time>
      </trkpt>
      <trkpt lat="44.96048" lon="4.81567">
        <ele>441</ele>
        <time>2021-11-28T12:27:55+01:00</time>
      </trkpt>
      <trkpt lat="44.96019" lon="4.81664">
        <ele>442</ele>
        <time>2021-11-28T12:28:00+01:00</time>
      </trkpt>
      <trkpt lat="44.95946" lon="4.81685">
        <ele>435</ele>
        <time>2021-11-28T12:28:05+01:00</time>
      </trkpt>
      <trkpt lat="44.95927" lon="4.81817">
        <ele>437</ele>
        <time>2021-11-28T12:28:10+01:00</time>
      </trkpt>
      <trkpt lat="44.95948" lon="4.81987">
        <ele>434</ele>
        <time>2021-11-28T12:28:15+01:00</time>
      </trkpt>
      <trkpt lat="44.95956" lon="4.82111">
        <ele>426</ele>
        <time>2021-11-28T12:28:20+01:00</time>
      </trkpt>
      <trkpt lat="44.95956" lon="4.82229">
        <ele>415</ele>
        <time>2021-11-28T12:28:25+01:00</time>
      </trkpt>
      <trkpt lat="44.95915" lon="4.82258">
        <ele>412</ele>
        <time>2021-11-28T12:28:30+01:00</time>
      </trkpt>
      <trkpt lat="44.95858" lon="4.82339">
        <ele>395</ele>
        <time>2021-11-28T12:28:35+01:00</time>
      </trkpt>
      <trkpt lat="44.95807" lon="4.82341">
        <ele>383</ele>
        <time>2021-11-28T12:28:40+01:00</time>
      </trkpt>
      <trkpt lat="44.9584" lon="4.82416">
        <ele>382</ele>
        <time>2021-11-28T12:28:45+01:00</time>
      </trkpt>
      <trkpt lat="44.95701" lon="4.82462">
        <ele>370</ele>
        <time>2021-11-28T12:28:50+01:00</time>
      </trkpt>
      <trkpt lat="44.95593" lon="4.82612">
        <ele>359</ele>
        <time>2021-11-28T12:28:55+01:00</time>
      </trkpt>
      <trkpt lat="44.95691" lon="4.82727">
        <ele>357</ele>
        <time>2021-11-28T12:29:00+01:00</time>
      </trkpt>
      <trkpt lat="44.95746" lon="4.8275">
        <ele>359</ele>
        <time>2021-11-28T12:29:05+01:00</time>
      </trkpt>
      <trkpt lat="44.95671" lon="4.8284">
        <ele>346</ele>
        <time>2021-11-28T12:29:10+01:00</time>
      </trkpt>
      <trkpt lat="44.95636" lon="4.82929">
        <ele>343</ele>
        <time>2021-11-28T12:29:15+01:00</time>
      </trkpt>
      <trkpt lat="44.95671" lon="4.82992">
        <ele>344</ele>
        <time>2021-11-28T12:29:20+01:00</time>
      </trkpt>
      <trkpt lat="44.95752" lon="4.83087">
        <ele>343</ele>
        <time>2021-11-28T12:29:25+01:00</time>
      </trkpt>
      <trkpt lat="44.9575" lon="4.83157">
        <ele>339</ele>
        <time>2021-11-28T12:29:30+01:00</time>
      </trkpt>
      <trkpt lat="44.95715" lon="4.8322">
        <ele>327</ele>
        <time>2021-11-28T12:29:35+01:00</time>
      </trkpt>
      <trkpt lat="44.9573" lon="4.83352">
        <ele>336</ele>
        <time>2021-11-28T12:29:40+01:00</time>
      </trkpt>
      <trkpt lat="44.95697" lon="4.8337">
        <ele>331</ele>
        <time>2021-11-28T12:29:45+01:00</time>
      </trkpt>
      <trkpt lat="44.95628" lon="4.8341">
        <ele>326</ele>
        <time>2021-11-28T12:29:50+01:00</time>
      </trkpt>
      <trkpt lat="44.95583" lon="4.83511">
        <ele>329</ele>
        <time>2021-11-28T12:29:55+01:00</time>
      </trkpt>
      <trkpt lat="44.95436" lon="4.83361">
        <ele>315</ele>
        <time>2021-11-28T12:30:00+01:00</time>
      </trkpt>
      <trkpt lat="44.95377" lon="4.83384">
        <ele>307</ele>
        <time>2021-11-28T12:30:05+01:00</time>
      </trkpt>
      <trkpt lat="44.95334" lon="4.83303">
        <ele>293</ele>
        <time>2021-11-28T12:30:10+01:00</time>
      </trkpt>
      <trkpt lat="44.95304" lon="4.8328">
        <ele>283</ele>
        <time>2021-11-28T12:30:15+01:00</time>
      </trkpt>
      <trkpt lat="44.95269" lon="4.83303">
        <ele>275</ele>
        <time>2021-11-28T12:30:20+01:00</time>
      </trkpt>
      <trkpt lat="44.95273" lon="4.83246">
        <ele>273</ele>
        <time>2021-11-28T12:30:25+01:00</time>
      </trkpt>
      <trkpt lat="44.95224" lon="4.83306">
        <ele>263</ele>
        <time>2021-11-28T12:30:30+01:00</time>
      </trkpt>
      <trkpt lat="44.95228" lon="4.83358">
        <ele>263</ele>
        <time>2021-11-28T12:30:35+01:00</time>
      </trkpt>
      <trkpt lat="44.95112" lon="4.83301">
        <ele>239</ele>
        <time>2021-11-28T12:30:40+01:00</time>
      </trkpt>
      <trkpt lat="44.9501" lon="4.8324">
        <ele>220</ele>
        <time>2021-11-28T12:30:45+01:00</time>
      </trkpt>
      <trkpt lat="44.94957" lon="4.83229">
        <ele>201</ele>
        <time>2021-11-28T12:30:50+01:00</time>
      </trkpt>
      <trkpt lat="44.94943" lon="4.83329">
        <ele>190</ele>
        <time>2021-11-28T12:30:55+01:00</time>
      </trkpt>
      <trkpt lat="44.9491" lon="4.83306">
        <ele>183</ele>
        <time>2021-11-28T12:31:00+01:00</time>
      </trkpt>
      <trkpt lat="44.94969" lon="4.83419">
        <ele>182</ele>
        <time>2021-11-28T12:31:05+01:00</time>
      </trkpt>
      <trkpt lat="44.94947" lon="4.83473">
        <ele>171</ele>
        <time>2021-11-28T12:31:10+01:00</time>
      </trkpt>
      <trkpt lat="44.94971" lon="4.83594">
        <ele>164</ele>
        <time>2021-11-28T12:31:15+01:00</time>
      </trkpt>
      <trkpt lat="44.94924" lon="4.836">
        <ele>155</ele>
        <time>2021-11-28T12:31:20+01:00</time>
      </trkpt>
      <trkpt lat="44.9492" lon="4.83652">
        <ele>151</ele>
        <time>2021-11-28T12:31:25+01:00</time>
      </trkpt>
      <trkpt lat="44.94949" lon="4.83689">
        <ele>153</ele>
        <time>2021-11-28T12:31:30+01:00</time>
      </trkpt>
      <trkpt lat="44.94911" lon="4.83745">
        <ele>147</ele>
        <time>2021-11-28T12:31:35+01:00</time>
      </trkpt>
      <trkpt lat="44.94939" lon="4.83777">
        <ele>147</ele>
        <time>2021-11-28T12:31:40+01:00</time>
      </trkpt>
      <trkpt lat="44.9493" lon="4.83843">
        <ele>145</ele>
        <time>2021-11-28T12:31:45+01:00</time>
      </trkpt>
      <trkpt lat="44.94882" lon="4.83876">
        <ele>148</ele>
        <time>2021-11-28T12:31:50+01:00</time>
      </trkpt>
      <trkpt lat="44.94904" lon="4.83944">
        <ele>144</ele>
        <time>2021-11-28T12:31:55+01:00</time>
      </trkpt>
      <trkpt lat="44.94878" lon="4.84084">
        <ele>143</ele>
        <time>2021-11-28T12:32:00+01:00</time>
      </trkpt>
      <trkpt lat="44.94913" lon="4.8427">
        <ele>136</ele>
        <time>2021-11-28T12:32:05+01:00</time>
      </trkpt>
      <trkpt lat="44.94908" lon="4.84367">
        <ele>134</ele>
        <time>2021-11-28T12:32:10+01:00</time>
      </trkpt>
      <trkpt lat="44.94861" lon="4.84689">
        <ele>129</ele>
        <time>2021-11-28T12:32:15+01:00</time>
      </trkpt>
      <trkpt lat="44.94829" lon="4.84858">
        <ele>130</ele>
        <time>2021-11-28T12:32:20+01:00</time>
      </trkpt>
      <trkpt lat="44.94841" lon="4.84918">
        <ele>129</ele>
        <time>2021-11-28T12:32:25+01:00</time>
      </trkpt>
      <trkpt lat="44.94764" lon="4.85">
        <ele>127</ele>
        <time>2021-11-28T12:32:30+01:00</time>
      </trkpt>
      <trkpt lat="44.94673" lon="4.85133">
        <ele>129</ele>
        <time>2021-11-28T12:32:35+01:00</time>
      </trkpt>
      <trkpt lat="44.94536" lon="4.85266">
        <ele>126</ele>
        <time>2021-11-28T12:32:40+01:00</time>
      </trkpt>
      <trkpt lat="44.94547" lon="4.85448">
        <ele>123</ele>
        <time>2021-11-28T12:32:45+01:00</time>
      </trkpt>
      <trkpt lat="44.94263" lon="4.85972">
        <ele>120</ele>
        <time>2021-11-28T12:32:50+01:00</time>
      </trkpt>
    </trkseg>
  </trk>
</gpx>